sensor_id;sensor_type;location;lat;lon;timestamp;pressure;altitude;pressure_sealevel;temperature;humidity
47983;BME280;33751;50.816;-1.214;2022-08-21T00:01:48;101680.83;;;18.70;100.00
47983;BME280;33751;50.816;-1.214;2022-08-21T00:04:15;101679.40;;;18.53;100.00
47983;BME280;33751;50.816;-1.214;2022-08-21T00:06:42;101683.47;;;18.29;100.00
47983;BME280;33751;50.816;-1.214;2022-08-21T00:09:09;101685.45;;;18.64;100.00
47983;BME280;33751;50.816;-1.214;2022-08-21T00:11:37;101685.59;;;18.38;100.00
47983;BME280;33751;50.816;-1.214;2022-08-21T00:14:05;101684.81;;;18.66;100.00
47983;BME280;33751;50.816;-1.214;2022-08-21T00:16:33;101682.10;;;18.60;100.00
47983;BME280;33751;50.816;-1.214;2022-08-21T00:19:01;101681.46;;;18.50;100.00
47983;BME280;33751;50.816;-1.214;2022-08-21T00:21:28;101678.44;;;18.50;100.00
47983;BME280;33751;50.816;-1.214;2022-08-21T00:23:55;101674.76;;;18.18;100.00
47983;BME280;33751;50.816;-1.214;2022-08-21T00:26:22;101674.39;;;18.41;100.00
47983;BME280;33751;50.816;-1.214;2022-08-21T00:28:49;101669.71;;;18.35;100.00
47983;BME280;33751;50.816;-1.214;2022-08-21T00:31:17;101664.51;;;18.74;100.00
47983;BME280;33751;50.816;-1.214;2022-08-21T00:33:45;101663.50;;;18.32;100.00
47983;BME280;33751;50.816;-1.214;2022-08-21T00:36:12;101657.04;;;18.43;100.00
47983;BME280;33751;50.816;-1.214;2022-08-21T00:38:39;101652.70;;;18.49;100.00
47983;BME280;33751;50.816;-1.214;2022-08-21T00:41:09;101653.31;;;18.50;100.00
47983;BME280;33751;50.816;-1.214;2022-08-21T00:43:37;101654.35;;;18.25;100.00
47983;BME280;33751;50.816;-1.214;2022-08-21T00:46:06;101648.34;;;18.44;100.00
47983;BME280;33751;50.816;-1.214;2022-08-21T00:48:33;101649.21;;;18.15;100.00
47983;BME280;33751;50.816;-1.214;2022-08-21T00:51:05;101647.68;;;18.39;100.00
47983;BME280;33751;50.816;-1.214;2022-08-21T00:53:35;101646.18;;;18.49;100.00
47983;BME280;33751;50.816;-1.214;2022-08-21T00:56:03;101649.09;;;18.43;100.00
47983;BME280;33751;50.816;-1.214;2022-08-21T00:58:32;101649.16;;;18.17;100.00
47983;BME280;33751;50.816;-1.214;2022-08-21T01:01:02;101656.39;;;18.65;100.00
47983;BME280;33751;50.816;-1.214;2022-08-21T01:03:29;101657.23;;;18.61;100.00
47983;BME280;33751;50.816;-1.214;2022-08-21T01:05:57;101651.87;;;18.77;100.00
47983;BME280;33751;50.816;-1.214;2022-08-21T01:08:24;101651.98;;;18.43;100.00
47983;BME280;33751;50.816;-1.214;2022-08-21T01:10:53;101655.76;;;18.22;100.00
47983;BME280;33751;50.816;-1.214;2022-08-21T01:13:21;101660.97;;;18.17;100.00
47983;BME280;33751;50.816;-1.214;2022-08-21T01:15:50;101659.46;;;18.25;100.00
47983;BME280;33751;50.816;-1.214;2022-08-21T01:18:20;101655.21;;;18.12;100.00
47983;BME280;33751;50.816;-1.214;2022-08-21T01:21:00;101657.59;;;18.19;100.00
47983;BME280;33751;50.816;-1.214;2022-08-21T01:23:27;101659.19;;;18.25;100.00
47983;BME280;33751;50.816;-1.214;2022-08-21T01:25:54;101662.18;;;18.00;100.00
47983;BME280;33751;50.816;-1.214;2022-08-21T01:28:22;101661.24;;;17.98;100.00
47983;BME280;33751;50.816;-1.214;2022-08-21T01:30:50;101656.40;;;18.17;100.00
47983;BME280;33751;50.816;-1.214;2022-08-21T01:33:19;101657.02;;;18.22;100.00
47983;BME280;33751;50.816;-1.214;2022-08-21T01:35:47;101655.21;;;18.25;100.00
47983;BME280;33751;50.816;-1.214;2022-08-21T01:38:15;101648.89;;;18.08;100.00
47983;BME280;33751;50.816;-1.214;2022-08-21T01:40:42;101650.05;;;18.19;100.00
47983;BME280;33751;50.816;-1.214;2022-08-21T01:43:09;101645.48;;;18.15;100.00
47983;BME280;33751;50.816;-1.214;2022-08-21T01:45:35;101644.07;;;18.05;100.00
47983;BME280;33751;50.816;-1.214;2022-08-21T01:48:03;101642.03;;;18.07;100.00
47983;BME280;33751;50.816;-1.214;2022-08-21T01:50:31;101643.11;;;18.00;100.00
47983;BME280;33751;50.816;-1.214;2022-08-21T01:52:58;101642.87;;;17.74;100.00
47983;BME280;33751;50.816;-1.214;2022-08-21T01:55:25;101641.36;;;17.99;100.00
47983;BME280;33751;50.816;-1.214;2022-08-21T01:57:52;101639.39;;;17.69;100.00
47983;BME280;33751;50.816;-1.214;2022-08-21T02:00:22;101643.40;;;18.00;100.00
47983;BME280;33751;50.816;-1.214;2022-08-21T02:02:50;101637.90;;;17.87;100.00
47983;BME280;33751;50.816;-1.214;2022-08-21T02:05:18;101636.45;;;18.11;100.00
47983;BME280;33751;50.816;-1.214;2022-08-21T02:07:49;101638.94;;;18.15;100.00
47983;BME280;33751;50.816;-1.214;2022-08-21T02:10:20;101640.69;;;17.98;100.00
47983;BME280;33751;50.816;-1.214;2022-08-21T02:12:48;101638.20;;;18.15;100.00
47983;BME280;33751;50.816;-1.214;2022-08-21T02:15:16;101636.52;;;17.94;100.00
47983;BME280;33751;50.816;-1.214;2022-08-21T02:17:44;101637.25;;;18.20;100.00
47983;BME280;33751;50.816;-1.214;2022-08-21T02:20:21;101633.91;;;17.95;100.00
47983;BME280;33751;50.816;-1.214;2022-08-21T02:22:48;101635.58;;;18.08;100.00
47983;BME280;33751;50.816;-1.214;2022-08-21T02:25:15;101638.44;;;17.68;100.00
47983;BME280;33751;50.816;-1.214;2022-08-21T02:27:45;101639.54;;;17.89;100.00
47983;BME280;33751;50.816;-1.214;2022-08-21T02:30:14;101639.02;;;18.28;100.00
47983;BME280;33751;50.816;-1.214;2022-08-21T02:32:42;101639.85;;;18.09;100.00
47983;BME280;33751;50.816;-1.214;2022-08-21T02:35:10;101639.39;;;17.71;100.00
47983;BME280;33751;50.816;-1.214;2022-08-21T02:37:43;101636.63;;;18.07;100.00
47983;BME280;33751;50.816;-1.214;2022-08-21T02:40:11;101639.71;;;17.76;100.00
47983;BME280;33751;50.816;-1.214;2022-08-21T02:42:38;101644.21;;;18.29;100.00
47983;BME280;33751;50.816;-1.214;2022-08-21T02:45:05;101638.66;;;17.95;100.00
47983;BME280;33751;50.816;-1.214;2022-08-21T02:47:32;101640.94;;;18.05;100.00
47983;BME280;33751;50.816;-1.214;2022-08-21T02:49:59;101639.86;;;18.25;100.00
47983;BME280;33751;50.816;-1.214;2022-08-21T02:52:26;101634.88;;;18.07;100.00
47983;BME280;33751;50.816;-1.214;2022-08-21T02:54:53;101631.56;;;17.90;100.00
47983;BME280;33751;50.816;-1.214;2022-08-21T02:57:20;101630.19;;;17.57;100.00
47983;BME280;33751;50.816;-1.214;2022-08-21T02:59:47;101630.66;;;18.09;100.00
47983;BME280;33751;50.816;-1.214;2022-08-21T03:02:14;101628.04;;;18.22;100.00
47983;BME280;33751;50.816;-1.214;2022-08-21T03:04:41;101626.20;;;18.23;100.00
47983;BME280;33751;50.816;-1.214;2022-08-21T03:07:08;101626.83;;;17.89;100.00
47983;BME280;33751;50.816;-1.214;2022-08-21T03:09:35;101627.73;;;17.98;100.00
47983;BME280;33751;50.816;-1.214;2022-08-21T03:12:02;101624.48;;;17.88;100.00
47983;BME280;33751;50.816;-1.214;2022-08-21T03:14:29;101625.69;;;18.04;100.00
47983;BME280;33751;50.816;-1.214;2022-08-21T03:16:55;101625.04;;;18.03;100.00
47983;BME280;33751;50.816;-1.214;2022-08-21T03:19:22;101628.91;;;18.10;100.00
47983;BME280;33751;50.816;-1.214;2022-08-21T03:21:49;101627.14;;;18.03;100.00
47983;BME280;33751;50.816;-1.214;2022-08-21T03:24:16;101629.51;;;18.12;100.00
47983;BME280;33751;50.816;-1.214;2022-08-21T03:26:43;101630.48;;;17.92;100.00
47983;BME280;33751;50.816;-1.214;2022-08-21T03:29:10;101628.80;;;17.89;100.00
47983;BME280;33751;50.816;-1.214;2022-08-21T03:31:38;101629.40;;;18.16;100.00
47983;BME280;33751;50.816;-1.214;2022-08-21T03:34:05;101631.91;;;17.99;100.00
47983;BME280;33751;50.816;-1.214;2022-08-21T03:36:33;101632.45;;;17.97;100.00
47983;BME280;33751;50.816;-1.214;2022-08-21T03:39:00;101630.97;;;17.93;100.00
47983;BME280;33751;50.816;-1.214;2022-08-21T03:41:26;101628.74;;;17.90;100.00
47983;BME280;33751;50.816;-1.214;2022-08-21T03:43:53;101627.01;;;18.14;100.00
47983;BME280;33751;50.816;-1.214;2022-08-21T03:46:20;101622.44;;;17.90;100.00
47983;BME280;33751;50.816;-1.214;2022-08-21T03:48:47;101621.33;;;17.99;100.00
47983;BME280;33751;50.816;-1.214;2022-08-21T03:51:14;101621.72;;;18.50;100.00
47983;BME280;33751;50.816;-1.214;2022-08-21T03:53:41;101620.75;;;17.99;100.00
47983;BME280;33751;50.816;-1.214;2022-08-21T03:56:07;101619.90;;;17.95;100.00
47983;BME280;33751;50.816;-1.214;2022-08-21T03:58:34;101618.39;;;18.10;100.00
47983;BME280;33751;50.816;-1.214;2022-08-21T04:01:03;101615.83;;;18.11;100.00
47983;BME280;33751;50.816;-1.214;2022-08-21T04:03:29;101619.71;;;18.30;100.00
47983;BME280;33751;50.816;-1.214;2022-08-21T04:05:56;101619.56;;;18.30;100.00
47983;BME280;33751;50.816;-1.214;2022-08-21T04:08:23;101617.97;;;18.05;100.00
47983;BME280;33751;50.816;-1.214;2022-08-21T04:10:53;101621.59;;;17.95;100.00
47983;BME280;33751;50.816;-1.214;2022-08-21T04:13:21;101623.15;;;18.06;100.00
47983;BME280;33751;50.816;-1.214;2022-08-21T04:15:49;101625.04;;;18.03;100.00
47983;BME280;33751;50.816;-1.214;2022-08-21T04:18:15;101625.69;;;18.06;100.00
47983;BME280;33751;50.816;-1.214;2022-08-21T04:20:45;101622.11;;;17.86;100.00
47983;BME280;33751;50.816;-1.214;2022-08-21T04:23:13;101619.85;;;17.86;100.00
47983;BME280;33751;50.816;-1.214;2022-08-21T04:25:40;101618.52;;;17.87;100.00
47983;BME280;33751;50.816;-1.214;2022-08-21T04:28:07;101621.67;;;17.99;100.00
47983;BME280;33751;50.816;-1.214;2022-08-21T04:30:33;101624.48;;;17.85;100.00
47983;BME280;33751;50.816;-1.214;2022-08-21T04:33:00;101633.18;;;17.93;100.00
47983;BME280;33751;50.816;-1.214;2022-08-21T04:35:28;101638.06;;;17.50;100.00
47983;BME280;33751;50.816;-1.214;2022-08-21T04:37:55;101640.51;;;17.68;100.00
47983;BME280;33751;50.816;-1.214;2022-08-21T04:40:24;101642.42;;;17.67;100.00
47983;BME280;33751;50.816;-1.214;2022-08-21T04:42:54;101643.01;;;17.72;100.00
47983;BME280;33751;50.816;-1.214;2022-08-21T04:45:25;101640.27;;;17.82;100.00
47983;BME280;33751;50.816;-1.214;2022-08-21T04:47:54;101639.70;;;17.76;100.00
47983;BME280;33751;50.816;-1.214;2022-08-21T04:50:24;101634.18;;;17.73;100.00
47983;BME280;33751;50.816;-1.214;2022-08-21T04:52:53;101634.02;;;17.79;100.00
47983;BME280;33751;50.816;-1.214;2022-08-21T04:55:21;101638.10;;;17.79;100.00
47983;BME280;33751;50.816;-1.214;2022-08-21T04:57:50;101641.70;;;17.68;100.00
47983;BME280;33751;50.816;-1.214;2022-08-21T05:00:17;101644.85;;;17.74;100.00
47983;BME280;33751;50.816;-1.214;2022-08-21T05:02:43;101641.93;;;17.63;100.00
47983;BME280;33751;50.816;-1.214;2022-08-21T05:05:10;101640.09;;;17.66;100.00
47983;BME280;33751;50.816;-1.214;2022-08-21T05:07:38;101640.82;;;17.51;100.00
47983;BME280;33751;50.816;-1.214;2022-08-21T05:10:06;101643.52;;;17.59;100.00
47983;BME280;33751;50.816;-1.214;2022-08-21T05:12:33;101648.91;;;17.47;100.00
47983;BME280;33751;50.816;-1.214;2022-08-21T05:15:01;101649.49;;;17.37;100.00
47983;BME280;33751;50.816;-1.214;2022-08-21T05:17:28;101650.25;;;17.51;100.00
47983;BME280;33751;50.816;-1.214;2022-08-21T05:19:55;101654.45;;;17.65;100.00
47983;BME280;33751;50.816;-1.214;2022-08-21T05:22:22;101651.07;;;17.78;100.00
47983;BME280;33751;50.816;-1.214;2022-08-21T05:24:50;101653.22;;;17.81;100.00
47983;BME280;33751;50.816;-1.214;2022-08-21T05:27:17;101657.65;;;17.71;100.00
47983;BME280;33751;50.816;-1.214;2022-08-21T05:29:44;101660.78;;;17.55;100.00
47983;BME280;33751;50.816;-1.214;2022-08-21T05:32:13;101658.44;;;17.80;100.00
47983;BME280;33751;50.816;-1.214;2022-08-21T05:34:40;101662.31;;;17.83;100.00
47983;BME280;33751;50.816;-1.214;2022-08-21T05:37:07;101670.29;;;17.86;100.00
47983;BME280;33751;50.816;-1.214;2022-08-21T05:39:36;101677.45;;;17.83;100.00
47983;BME280;33751;50.816;-1.214;2022-08-21T05:42:03;101684.07;;;17.81;100.00
47983;BME280;33751;50.816;-1.214;2022-08-21T05:44:30;101691.56;;;17.82;100.00
47983;BME280;33751;50.816;-1.214;2022-08-21T05:47:03;101694.74;;;17.86;100.00
47983;BME280;33751;50.816;-1.214;2022-08-21T05:49:30;101695.24;;;17.71;100.00
47983;BME280;33751;50.816;-1.214;2022-08-21T05:51:57;101694.38;;;17.75;100.00
47983;BME280;33751;50.816;-1.214;2022-08-21T05:54:24;101689.61;;;17.81;100.00
47983;BME280;33751;50.816;-1.214;2022-08-21T05:56:51;101682.27;;;17.59;100.00
47983;BME280;33751;50.816;-1.214;2022-08-21T05:59:19;101675.23;;;18.02;100.00
47983;BME280;33751;50.816;-1.214;2022-08-21T06:01:46;101673.07;;;18.16;100.00
47983;BME280;33751;50.816;-1.214;2022-08-21T06:04:13;101674.46;;;17.78;100.00
47983;BME280;33751;50.816;-1.214;2022-08-21T06:06:40;101673.08;;;18.02;100.00
47983;BME280;33751;50.816;-1.214;2022-08-21T06:09:07;101668.71;;;17.87;100.00
47983;BME280;33751;50.816;-1.214;2022-08-21T06:11:33;101664.31;;;18.28;100.00
47983;BME280;33751;50.816;-1.214;2022-08-21T06:14:00;101663.19;;;18.38;100.00
47983;BME280;33751;50.816;-1.214;2022-08-21T06:16:27;101659.46;;;18.26;100.00
47983;BME280;33751;50.816;-1.214;2022-08-21T06:18:54;101657.79;;;18.55;100.00
47983;BME280;33751;50.816;-1.214;2022-08-21T06:21:21;101658.85;;;18.28;100.00
47983;BME280;33751;50.816;-1.214;2022-08-21T06:23:48;101656.98;;;17.85;100.00
47983;BME280;33751;50.816;-1.214;2022-08-21T06:26:16;101653.14;;;18.36;100.00
47983;BME280;33751;50.816;-1.214;2022-08-21T06:28:43;101649.73;;;18.64;100.00
47983;BME280;33751;50.816;-1.214;2022-08-21T06:31:12;101650.85;;;18.10;100.00
47983;BME280;33751;50.816;-1.214;2022-08-21T06:33:40;101647.51;;;18.20;100.00
47983;BME280;33751;50.816;-1.214;2022-08-21T06:36:07;101645.42;;;18.40;100.00
47983;BME280;33751;50.816;-1.214;2022-08-21T06:38:35;101646.52;;;18.10;100.00
47983;BME280;33751;50.816;-1.214;2022-08-21T06:41:03;101645.76;;;18.55;100.00
47983;BME280;33751;50.816;-1.214;2022-08-21T06:43:30;101650.36;;;18.68;100.00
47983;BME280;33751;50.816;-1.214;2022-08-21T06:45:57;101649.25;;;18.24;100.00
47983;BME280;33751;50.816;-1.214;2022-08-21T06:48:24;101651.37;;;18.21;100.00
47983;BME280;33751;50.816;-1.214;2022-08-21T06:50:51;101651.37;;;18.09;100.00
47983;BME280;33751;50.816;-1.214;2022-08-21T06:53:20;101643.11;;;18.01;100.00
47983;BME280;33751;50.816;-1.214;2022-08-21T06:55:48;101636.12;;;18.15;100.00
47983;BME280;33751;50.816;-1.214;2022-08-21T06:58:16;101626.61;;;17.91;100.00
47983;BME280;33751;50.816;-1.214;2022-08-21T07:00:47;101624.21;;;18.23;100.00
47983;BME280;33751;50.816;-1.214;2022-08-21T07:03:25;101624.04;;;17.86;100.00
47983;BME280;33751;50.816;-1.214;2022-08-21T07:05:54;101621.46;;;17.96;100.00
47983;BME280;33751;50.816;-1.214;2022-08-21T07:08:21;101613.78;;;17.99;100.00
47983;BME280;33751;50.816;-1.214;2022-08-21T07:10:48;101608.09;;;18.40;100.00
47983;BME280;33751;50.816;-1.214;2022-08-21T07:13:16;101595.94;;;18.24;100.00
47983;BME280;33751;50.816;-1.214;2022-08-21T07:15:42;101589.74;;;18.07;100.00
47983;BME280;33751;50.816;-1.214;2022-08-21T07:18:10;101581.67;;;18.07;100.00
47983;BME280;33751;50.816;-1.214;2022-08-21T07:20:37;101574.85;;;18.51;100.00
47983;BME280;33751;50.816;-1.214;2022-08-21T07:23:11;101575.31;;;18.37;100.00
47983;BME280;33751;50.816;-1.214;2022-08-21T07:25:39;101577.45;;;18.82;100.00
47983;BME280;33751;50.816;-1.214;2022-08-21T07:28:06;101579.20;;;18.54;100.00
47983;BME280;33751;50.816;-1.214;2022-08-21T07:30:34;101578.13;;;18.20;100.00
47983;BME280;33751;50.816;-1.214;2022-08-21T07:33:01;101577.90;;;18.23;100.00
47983;BME280;33751;50.816;-1.214;2022-08-21T07:35:28;101576.67;;;18.53;100.00
47983;BME280;33751;50.816;-1.214;2022-08-21T07:37:55;101579.85;;;18.34;100.00
47983;BME280;33751;50.816;-1.214;2022-08-21T07:40:22;101574.69;;;18.54;100.00
47983;BME280;33751;50.816;-1.214;2022-08-21T07:42:49;101574.12;;;18.41;100.00
47983;BME280;33751;50.816;-1.214;2022-08-21T07:45:17;101579.22;;;18.80;100.00
47983;BME280;33751;50.816;-1.214;2022-08-21T07:47:45;101590.80;;;18.63;100.00
47983;BME280;33751;50.816;-1.214;2022-08-21T07:50:13;101599.29;;;18.85;100.00
47983;BME280;33751;50.816;-1.214;2022-08-21T07:52:40;101605.80;;;18.68;100.00
47983;BME280;33751;50.816;-1.214;2022-08-21T07:55:09;101616.97;;;19.08;100.00
47983;BME280;33751;50.816;-1.214;2022-08-21T07:57:37;101623.17;;;18.95;100.00
47983;BME280;33751;50.816;-1.214;2022-08-21T08:00:06;101628.19;;;18.76;100.00
47983;BME280;33751;50.816;-1.214;2022-08-21T08:02:34;101632.26;;;19.02;100.00
47983;BME280;33751;50.816;-1.214;2022-08-21T08:05:03;101631.09;;;19.12;100.00
47983;BME280;33751;50.816;-1.214;2022-08-21T08:07:31;101633.85;;;19.20;100.00
47983;BME280;33751;50.816;-1.214;2022-08-21T08:09:58;101632.39;;;18.89;100.00
47983;BME280;33751;50.816;-1.214;2022-08-21T08:12:25;101632.36;;;19.24;100.00
47983;BME280;33751;50.816;-1.214;2022-08-21T08:14:52;101629.52;;;19.28;100.00
47983;BME280;33751;50.816;-1.214;2022-08-21T08:17:19;101627.65;;;19.16;100.00
47983;BME280;33751;50.816;-1.214;2022-08-21T08:19:46;101622.50;;;19.37;100.00
47983;BME280;33751;50.816;-1.214;2022-08-21T08:22:14;101623.92;;;19.38;100.00
47983;BME280;33751;50.816;-1.214;2022-08-21T08:24:41;101621.47;;;18.94;100.00
47983;BME280;33751;50.816;-1.214;2022-08-21T08:27:08;101620.92;;;19.52;100.00
47983;BME280;33751;50.816;-1.214;2022-08-21T08:29:35;101625.23;;;19.03;100.00
47983;BME280;33751;50.816;-1.214;2022-08-21T08:32:03;101624.85;;;19.44;100.00
47983;BME280;33751;50.816;-1.214;2022-08-21T08:34:30;101617.41;;;19.42;100.00
47983;BME280;33751;50.816;-1.214;2022-08-21T08:36:57;101609.69;;;19.57;100.00
47983;BME280;33751;50.816;-1.214;2022-08-21T08:39:24;101607.21;;;19.79;100.00
47983;BME280;33751;50.816;-1.214;2022-08-21T08:41:58;101616.06;;;19.85;100.00
47983;BME280;33751;50.816;-1.214;2022-08-21T08:44:26;101621.52;;;19.93;100.00
47983;BME280;33751;50.816;-1.214;2022-08-21T08:46:53;101623.68;;;19.98;100.00
47983;BME280;33751;50.816;-1.214;2022-08-21T08:49:26;101627.77;;;19.87;100.00
47983;BME280;33751;50.816;-1.214;2022-08-21T08:52:01;101636.43;;;20.13;100.00
47983;BME280;33751;50.816;-1.214;2022-08-21T08:54:32;101641.83;;;20.18;100.00
47983;BME280;33751;50.816;-1.214;2022-08-21T08:57:02;101640.05;;;20.02;100.00
47983;BME280;33751;50.816;-1.214;2022-08-21T08:59:38;101640.84;;;20.46;100.00
47983;BME280;33751;50.816;-1.214;2022-08-21T09:02:08;101642.99;;;20.56;100.00
47983;BME280;33751;50.816;-1.214;2022-08-21T09:04:37;101648.47;;;20.39;100.00
47983;BME280;33751;50.816;-1.214;2022-08-21T09:07:12;101655.12;;;20.32;100.00
47983;BME280;33751;50.816;-1.214;2022-08-21T09:09:51;101645.39;;;20.20;100.00
47983;BME280;33751;50.816;-1.214;2022-08-21T09:12:33;101644.54;;;20.66;100.00
47983;BME280;33751;50.816;-1.214;2022-08-21T09:15:12;101648.85;;;20.73;100.00
47983;BME280;33751;50.816;-1.214;2022-08-21T09:17:59;101650.44;;;20.61;100.00
47983;BME280;33751;50.816;-1.214;2022-08-21T09:20:38;101650.79;;;20.84;100.00
47983;BME280;33751;50.816;-1.214;2022-08-21T09:23:28;101649.75;;;20.60;100.00
47983;BME280;33751;50.816;-1.214;2022-08-21T09:26:02;101643.70;;;20.61;100.00
47983;BME280;33751;50.816;-1.214;2022-08-21T09:28:34;101646.37;;;20.30;100.00
47983;BME280;33751;50.816;-1.214;2022-08-21T09:31:05;101654.21;;;20.51;100.00
47983;BME280;33751;50.816;-1.214;2022-08-21T09:33:31;101650.15;;;20.74;100.00
47983;BME280;33751;50.816;-1.214;2022-08-21T09:35:58;101643.74;;;20.68;100.00
47983;BME280;33751;50.816;-1.214;2022-08-21T09:38:28;101647.06;;;20.51;100.00
47983;BME280;33751;50.816;-1.214;2022-08-21T09:40:59;101651.01;;;20.46;100.00
47983;BME280;33751;50.816;-1.214;2022-08-21T09:43:28;101650.45;;;20.71;100.00
47983;BME280;33751;50.816;-1.214;2022-08-21T09:46:05;101647.53;;;20.29;100.00
47983;BME280;33751;50.816;-1.214;2022-08-21T09:48:40;101643.04;;;20.51;100.00
47983;BME280;33751;50.816;-1.214;2022-08-21T09:51:11;101638.60;;;20.18;100.00
47983;BME280;33751;50.816;-1.214;2022-08-21T09:53:42;101639.04;;;20.29;100.00
47983;BME280;33751;50.816;-1.214;2022-08-21T09:56:20;101641.22;;;20.12;100.00
47983;BME280;33751;50.816;-1.214;2022-08-21T09:58:50;101641.22;;;20.15;100.00
47983;BME280;33751;50.816;-1.214;2022-08-21T10:01:19;101634.65;;;20.39;100.00
47983;BME280;33751;50.816;-1.214;2022-08-21T10:03:47;101633.28;;;20.31;100.00
47983;BME280;33751;50.816;-1.214;2022-08-21T10:06:23;101641.59;;;20.44;100.00
47983;BME280;33751;50.816;-1.214;2022-08-21T10:09:02;101643.54;;;20.77;100.00
47983;BME280;33751;50.816;-1.214;2022-08-21T10:11:30;101641.64;;;20.47;100.00
47983;BME280;33751;50.816;-1.214;2022-08-21T10:14:06;101638.04;;;20.83;100.00
47983;BME280;33751;50.816;-1.214;2022-08-21T10:16:55;101636.65;;;20.56;100.00
47983;BME280;33751;50.816;-1.214;2022-08-21T10:19:31;101635.50;;;20.34;100.00
47983;BME280;33751;50.816;-1.214;2022-08-21T10:22:10;101637.84;;;20.30;100.00
47983;BME280;33751;50.816;-1.214;2022-08-21T10:24:45;101637.86;;;19.92;100.00
47983;BME280;33751;50.816;-1.214;2022-08-21T10:27:26;101638.39;;;20.45;100.00
47983;BME280;33751;50.816;-1.214;2022-08-21T10:30:00;101642.31;;;19.98;100.00
47983;BME280;33751;50.816;-1.214;2022-08-21T10:32:42;101646.97;;;19.91;100.00
47983;BME280;33751;50.816;-1.214;2022-08-21T10:35:17;101649.90;;;20.21;100.00
47983;BME280;33751;50.816;-1.214;2022-08-21T10:37:58;101650.82;;;20.15;100.00
47983;BME280;33751;50.816;-1.214;2022-08-21T10:40:31;101647.12;;;20.25;100.00
47983;BME280;33751;50.816;-1.214;2022-08-21T10:43:15;101642.38;;;20.09;100.00
47983;BME280;33751;50.816;-1.214;2022-08-21T10:45:51;101640.90;;;20.04;100.00
47983;BME280;33751;50.816;-1.214;2022-08-21T10:48:28;101632.74;;;19.78;100.00
47983;BME280;33751;50.816;-1.214;2022-08-21T10:51:03;101628.77;;;19.83;100.00
47983;BME280;33751;50.816;-1.214;2022-08-21T10:53:44;101627.09;;;20.22;100.00
47983;BME280;33751;50.816;-1.214;2022-08-21T10:56:16;101624.37;;;19.89;100.00
47983;BME280;33751;50.816;-1.214;2022-08-21T10:58:49;101618.66;;;19.93;100.00
47983;BME280;33751;50.816;-1.214;2022-08-21T11:01:24;101619.87;;;20.14;100.00
47983;BME280;33751;50.816;-1.214;2022-08-21T11:04:06;101627.29;;;20.63;100.00
47983;BME280;33751;50.816;-1.214;2022-08-21T11:06:38;101632.30;;;20.12;100.00
47983;BME280;33751;50.816;-1.214;2022-08-21T11:09:11;101640.42;;;20.53;100.00
47983;BME280;33751;50.816;-1.214;2022-08-21T11:11:45;101645.73;;;20.83;100.00
47983;BME280;33751;50.816;-1.214;2022-08-21T11:14:21;101651.94;;;20.88;100.00
47983;BME280;33751;50.816;-1.214;2022-08-21T11:16:59;101651.23;;;20.80;100.00
47983;BME280;33751;50.816;-1.214;2022-08-21T11:19:31;101651.49;;;20.80;100.00
47983;BME280;33751;50.816;-1.214;2022-08-21T11:22:06;101648.99;;;21.24;100.00
47983;BME280;33751;50.816;-1.214;2022-08-21T11:24:40;101646.67;;;21.13;100.00
47983;BME280;33751;50.816;-1.214;2022-08-21T11:27:15;101646.57;;;21.12;100.00
47983;BME280;33751;50.816;-1.214;2022-08-21T11:29:47;101644.92;;;20.83;100.00
47983;BME280;33751;50.816;-1.214;2022-08-21T11:32:29;101646.42;;;21.15;100.00
47983;BME280;33751;50.816;-1.214;2022-08-21T11:35:03;101648.91;;;21.34;100.00
47983;BME280;33751;50.816;-1.214;2022-08-21T11:37:43;101642.22;;;21.09;100.00
47983;BME280;33751;50.816;-1.214;2022-08-21T11:40:19;101644.07;;;21.61;100.00
47983;BME280;33751;50.816;-1.214;2022-08-21T11:42:57;101640.40;;;22.27;100.00
47983;BME280;33751;50.816;-1.214;2022-08-21T11:45:35;101639.20;;;22.37;100.00
47983;BME280;33751;50.816;-1.214;2022-08-21T11:48:10;101640.24;;;23.25;93.82
47983;BME280;33751;50.816;-1.214;2022-08-21T11:50:43;101638.52;;;23.29;94.10
47983;BME280;33751;50.816;-1.214;2022-08-21T11:53:15;101642.61;;;22.71;100.00
47983;BME280;33751;50.816;-1.214;2022-08-21T11:55:48;101645.81;;;22.46;100.00
47983;BME280;33751;50.816;-1.214;2022-08-21T11:58:20;101644.80;;;22.80;100.00
47983;BME280;33751;50.816;-1.214;2022-08-21T12:00:51;101644.59;;;22.91;100.00
47983;BME280;33751;50.816;-1.214;2022-08-21T12:03:25;101637.24;;;23.75;98.38
47983;BME280;33751;50.816;-1.214;2022-08-21T12:05:57;101642.69;;;24.17;95.62
47983;BME280;33751;50.816;-1.214;2022-08-21T12:08:29;101642.96;;;24.35;93.64
47983;BME280;33751;50.816;-1.214;2022-08-21T12:11:04;101642.89;;;23.89;100.00
47983;BME280;33751;50.816;-1.214;2022-08-21T12:13:33;101639.28;;;23.45;100.00
47983;BME280;33751;50.816;-1.214;2022-08-21T12:16:06;101638.45;;;23.50;100.00
47983;BME280;33751;50.816;-1.214;2022-08-21T12:18:34;101633.07;;;23.67;100.00
47983;BME280;33751;50.816;-1.214;2022-08-21T12:21:16;101632.54;;;23.36;100.00
47983;BME280;33751;50.816;-1.214;2022-08-21T12:23:46;101631.20;;;22.64;100.00
47983;BME280;33751;50.816;-1.214;2022-08-21T12:26:27;101625.51;;;23.72;100.00
47983;BME280;33751;50.816;-1.214;2022-08-21T12:29:29;101624.21;;;23.65;100.00
47983;BME280;33751;50.816;-1.214;2022-08-21T12:31:59;101625.61;;;23.53;100.00
47983;BME280;33751;50.816;-1.214;2022-08-21T12:34:34;101620.60;;;23.28;100.00
47983;BME280;33751;50.816;-1.214;2022-08-21T12:37:04;101625.35;;;22.84;100.00
47983;BME280;33751;50.816;-1.214;2022-08-21T12:39:36;101629.99;;;23.29;100.00
47983;BME280;33751;50.816;-1.214;2022-08-21T12:42:13;101630.07;;;22.59;100.00
47983;BME280;33751;50.816;-1.214;2022-08-21T12:44:46;101636.18;;;22.62;100.00